createdAt,value
2018-03-17T00:00:12.606Z,73.00
2018-03-17T00:02:39.076Z,73.20
2018-03-17T00:05:06.089Z,72.70
2018-03-17T00:07:41.548Z,72.50
2018-03-17T00:10:07.921Z,72.50
2018-03-17T00:12:34.435Z,73.90
2018-03-17T00:15:00.833Z,73.40
2018-03-17T00:17:34.866Z,71.90
2018-03-17T00:20:01.113Z,71.80
2018-03-17T00:22:27.380Z,72.30
2018-03-17T00:24:53.659Z,72.00
2018-03-17T00:27:19.913Z,72.00
2018-03-17T00:29:53.453Z,72.80
2018-03-17T00:32:19.795Z,72.80
2018-03-17T00:34:46.084Z,71.60
2018-03-17T00:37:12.453Z,72.00
2018-03-17T00:39:39.598Z,71.60
2018-03-17T00:42:05.911Z,71.60
2018-03-17T00:44:32.328Z,71.20
2018-03-17T00:46:58.623Z,71.30
2018-03-17T00:49:24.943Z,71.80
2018-03-17T00:51:57.855Z,71.50
2018-03-17T00:54:26.547Z,71.70
2018-03-17T00:56:53.442Z,71.10
2018-03-17T00:59:20.450Z,72.20
2018-03-17T01:01:46.750Z,71.50
2018-03-17T01:04:13.850Z,71.50
2018-03-17T01:06:40.207Z,71.50
2018-03-17T01:09:06.512Z,71.00
2018-03-17T01:11:32.868Z,71.40
2018-03-17T01:13:59.178Z,71.30
2018-03-17T01:16:31.389Z,71.80
2018-03-17T01:18:57.695Z,71.80
2018-03-17T01:21:25.005Z,70.40
2018-03-17T01:23:51.340Z,70.30
2018-03-17T01:26:23.646Z,70.00
2018-03-17T01:29:00.219Z,69.80
2018-03-17T01:31:26.488Z,69.90
2018-03-17T01:33:52.793Z,69.90
2018-03-17T01:36:19.100Z,70.10
2018-03-17T01:38:53.010Z,70.90
2018-03-17T01:41:19.274Z,70.90
2018-03-17T01:43:46.322Z,70.70
2018-03-17T01:46:12.589Z,70.60
2018-03-17T01:48:38.838Z,70.90
2018-03-17T01:51:05.146Z,70.60
2018-03-17T01:53:31.418Z,70.80
2018-03-17T01:55:57.720Z,70.30
2018-03-17T01:58:24.320Z,70.20
2018-03-17T02:00:55.014Z,71.30
2018-03-17T02:03:21.316Z,72.10
2018-03-17T02:05:59.548Z,71.60
2018-03-17T02:08:25.998Z,72.10
2018-03-17T02:10:52.274Z,71.90
2018-03-17T02:13:18.589Z,72.20
2018-03-17T02:15:44.840Z,72.30
2018-03-17T02:18:11.090Z,72.70
2018-03-17T02:20:37.390Z,73.00
2018-03-17T02:23:03.626Z,72.80
2018-03-17T02:25:33.424Z,71.90
2018-03-17T02:28:06.803Z,72.40
2018-03-17T02:30:33.078Z,71.60
2018-03-17T02:33:00.075Z,72.80
2018-03-17T02:35:26.405Z,72.10
2018-03-17T02:37:52.717Z,72.10
2018-03-17T02:40:19.772Z,71.50
2018-03-17T02:42:48.780Z,70.90
2018-03-17T02:45:15.026Z,70.70
2018-03-17T02:47:42.026Z,70.80
2018-03-17T02:50:08.309Z,70.80
2018-03-17T02:52:34.610Z,71.40
2018-03-17T02:55:00.847Z,71.70
2018-03-17T02:57:27.156Z,71.90
2018-03-17T02:59:54.152Z,72.20
2018-03-17T03:02:20.658Z,72.10
2018-03-17T03:04:47.849Z,71.90
2018-03-17T03:07:14.152Z,71.60
2018-03-17T03:09:40.427Z,71.90
2018-03-17T03:12:13.650Z,71.20
2018-03-17T03:14:39.918Z,70.30
2018-03-17T03:17:06.231Z,71.40
2018-03-17T03:19:32.619Z,71.20
2018-03-17T03:21:59.642Z,71.50
2018-03-17T03:24:26.179Z,71.50
2018-03-17T03:26:52.741Z,71.90
2018-03-17T03:29:19.014Z,71.80
2018-03-17T03:31:45.274Z,71.80
2018-03-17T03:34:12.294Z,71.90
2018-03-17T03:36:38.595Z,71.90
2018-03-17T03:39:11.774Z,71.40
2018-03-17T03:41:39.379Z,71.40
2018-03-17T03:44:05.659Z,71.30
2018-03-17T03:46:32.133Z,71.30
2018-03-17T03:48:58.408Z,71.50
2018-03-17T03:51:25.440Z,71.30
2018-03-17T03:53:52.690Z,71.40
2018-03-17T03:56:18.946Z,71.30
2018-03-17T03:58:45.230Z,70.90
2018-03-17T04:01:11.508Z,71.40
2018-03-17T04:03:37.805Z,71.30
2018-03-17T04:06:14.368Z,71.30
2018-03-17T04:08:41.398Z,71.50
2018-03-17T04:11:07.641Z,71.50
2018-03-17T04:13:33.868Z,71.90
2018-03-17T04:16:04.353Z,71.30
2018-03-17T04:18:30.599Z,71.30
2018-03-17T04:20:57.631Z,71.70
2018-03-17T04:23:23.931Z,71.70
2018-03-17T04:25:50.133Z,71.30
2018-03-17T04:28:17.128Z,71.40
2018-03-17T04:30:43.375Z,70.70
2018-03-17T04:33:09.660Z,70.60
2018-03-17T04:35:35.916Z,70.20
2018-03-17T04:38:03.134Z,70.40
2018-03-17T04:40:29.412Z,70.40
2018-03-17T04:42:55.906Z,71.10
2018-03-17T04:45:26.952Z,71.10
2018-03-17T04:47:53.232Z,70.50
2018-03-17T04:50:19.517Z,70.40
2018-03-17T04:52:46.512Z,70.90
2018-03-17T04:55:12.791Z,70.90
2018-03-17T04:57:53.728Z,70.50
2018-03-17T05:00:19.985Z,70.20
2018-03-17T05:02:46.250Z,70.00
2018-03-17T05:05:12.514Z,69.70
2018-03-17T05:07:39.545Z,70.40
2018-03-17T05:10:06.696Z,70.30
2018-03-17T05:12:33.163Z,69.30
2018-03-17T05:15:19.641Z,69.40
2018-03-17T05:17:45.905Z,69.10
2018-03-17T05:20:12.335Z,70.10
2018-03-17T05:22:38.553Z,69.50
2018-03-17T05:25:04.858Z,69.20
2018-03-17T05:27:31.116Z,70.60
2018-03-17T05:29:58.140Z,69.20
2018-03-17T05:32:26.560Z,69.00
2018-03-17T05:34:52.992Z,69.30
2018-03-17T05:37:19.278Z,69.40
2018-03-17T05:39:45.576Z,69.50
2018-03-17T05:42:11.854Z,70.10
2018-03-17T05:44:38.120Z,69.40
2018-03-17T05:47:04.366Z,68.70
2018-03-17T05:49:30.788Z,68.60
2018-03-17T05:51:57.834Z,68.20
2018-03-17T05:54:38.095Z,68.10
2018-03-17T05:57:04.374Z,68.00
2018-03-17T05:59:30.616Z,68.40
2018-03-17T06:01:56.914Z,69.10
2018-03-17T06:04:23.226Z,69.20
2018-03-17T06:06:49.543Z,69.80
2018-03-17T06:09:15.788Z,69.10
2018-03-17T06:11:42.096Z,70.10
2018-03-17T06:14:09.223Z,68.70
2018-03-17T06:16:35.480Z,68.70
2018-03-17T06:19:01.803Z,68.30
2018-03-17T06:21:28.245Z,68.60
2018-03-17T06:23:54.513Z,68.70
2018-03-17T06:26:26.367Z,69.00
2018-03-17T06:28:52.666Z,68.50
2018-03-17T06:31:18.954Z,68.00
2018-03-17T06:33:45.166Z,68.10
2018-03-17T06:36:11.432Z,67.80
2018-03-17T06:38:37.726Z,68.90
2018-03-17T06:41:04.017Z,68.80
2018-03-17T06:43:30.280Z,67.20
2018-03-17T06:45:57.670Z,66.70
2018-03-17T06:48:24.706Z,67.50
2018-03-17T06:50:51.057Z,67.40
2018-03-17T06:53:17.754Z,67.30
2018-03-17T06:55:44.017Z,68.40
2018-03-17T06:58:10.368Z,67.90
2018-03-17T07:00:36.705Z,67.70
2018-03-17T07:03:02.958Z,68.70
2018-03-17T07:05:29.234Z,67.30
2018-03-17T07:07:56.603Z,66.90
2018-03-17T07:10:22.971Z,66.90
2018-03-17T07:12:49.251Z,65.80
2018-03-17T07:15:15.530Z,66.10
2018-03-17T07:17:42.535Z,65.70
2018-03-17T07:20:08.833Z,65.60
2018-03-17T07:22:35.874Z,65.90
2018-03-17T07:25:02.857Z,65.80
2018-03-17T07:27:29.976Z,65.80
2018-03-17T07:29:57.014Z,66.00
2018-03-17T07:32:23.351Z,65.90
2018-03-17T07:34:49.678Z,65.70
2018-03-17T07:37:15.983Z,66.30
2018-03-17T07:39:42.322Z,66.10
2018-03-17T07:42:08.734Z,66.20
2018-03-17T07:44:38.734Z,65.10
2018-03-17T07:47:05.809Z,65.40
2018-03-17T07:49:32.131Z,65.40
2018-03-17T07:52:00.226Z,65.70
2018-03-17T07:54:26.720Z,65.70
2018-03-17T07:56:53.069Z,65.40
2018-03-17T07:59:19.406Z,65.70
2018-03-17T08:02:03.739Z,65.20
2018-03-17T08:04:30.087Z,65.40
2018-03-17T08:06:56.561Z,66.50
2018-03-17T08:09:22.881Z,65.60
2018-03-17T08:11:52.756Z,64.80
2018-03-17T08:14:19.291Z,65.90
2018-03-17T08:16:47.684Z,65.50
2018-03-17T08:19:14.151Z,66.60
2018-03-17T08:21:41.369Z,64.30
2018-03-17T08:24:10.039Z,64.30
2018-03-17T08:26:36.528Z,64.70
2018-03-17T08:29:02.894Z,64.10
2018-03-17T08:31:30.071Z,63.30
2018-03-17T08:33:59.294Z,62.70
2018-03-17T08:36:25.614Z,62.60
2018-03-17T08:38:51.943Z,62.80
2018-03-17T08:41:29.820Z,62.40
2018-03-17T08:43:56.182Z,63.20
2018-03-17T08:46:24.739Z,62.90
2018-03-17T08:48:51.086Z,62.60
2018-03-17T08:51:17.618Z,62.10
2018-03-17T08:53:44.361Z,61.10
2018-03-17T08:56:16.322Z,60.80
2018-03-17T08:58:42.777Z,60.80
2018-03-17T09:01:09.279Z,61.50
2018-03-17T09:03:35.796Z,61.00
2018-03-17T09:06:03.028Z,61.40
2018-03-17T09:08:30.151Z,62.30
2018-03-17T09:11:02.370Z,62.20
2018-03-17T09:13:28.712Z,60.60
2018-03-17T09:15:55.273Z,59.50
2018-03-17T09:18:21.611Z,59.20
2018-03-17T09:20:47.996Z,59.30
2018-03-17T09:23:14.389Z,58.90
2018-03-17T09:25:40.942Z,59.30
2018-03-17T09:28:07.353Z,59.40
2018-03-17T09:30:33.663Z,60.10
2018-03-17T09:33:00.071Z,60.10
2018-03-17T09:35:26.552Z,60.00
2018-03-17T09:37:53.637Z,60.00
2018-03-17T09:40:19.939Z,59.90
2018-03-17T09:42:51.888Z,59.30
2018-03-17T09:45:18.267Z,59.20
2018-03-17T09:47:45.391Z,60.60
2018-03-17T09:50:11.783Z,60.60
2018-03-17T09:52:38.168Z,59.80
2018-03-17T09:55:05.278Z,59.70
2018-03-17T09:57:32.525Z,59.90
2018-03-17T09:59:58.895Z,59.90
2018-03-17T10:02:25.992Z,60.50
2018-03-17T10:04:52.381Z,60.40
2018-03-17T10:07:18.721Z,60.20
2018-03-17T10:09:45.197Z,60.10
2018-03-17T10:12:12.439Z,60.30
2018-03-17T10:14:39.574Z,61.30
2018-03-17T10:17:11.590Z,60.60
2018-03-17T10:19:38.009Z,60.60
2018-03-17T10:22:04.523Z,59.50
2018-03-17T10:24:30.990Z,60.10
2018-03-17T10:27:03.573Z,59.30
2018-03-17T10:29:30.000Z,59.00
2018-03-17T10:31:56.552Z,59.10
2018-03-17T10:34:22.995Z,58.80
2018-03-17T10:36:49.551Z,58.50
2018-03-17T10:39:23.230Z,58.40
2018-03-17T10:41:49.541Z,58.30
2018-03-17T10:44:15.909Z,58.20
2018-03-17T10:46:43.075Z,58.50
2018-03-17T10:49:09.680Z,58.30
2018-03-17T10:51:36.508Z,59.20
2018-03-17T10:54:02.925Z,59.10
2018-03-17T10:56:30.056Z,59.20
2018-03-17T10:58:56.435Z,59.20
2018-03-17T11:01:24.725Z,59.30
2018-03-17T11:03:52.249Z,61.00
2018-03-17T11:06:18.841Z,60.50
2018-03-17T11:08:46.029Z,60.10
2018-03-17T11:11:13.338Z,60.00
2018-03-17T11:13:44.361Z,58.40
2018-03-17T11:16:13.968Z,59.20
2018-03-17T11:18:41.309Z,58.40
2018-03-17T11:21:08.479Z,58.30
2018-03-17T11:23:34.821Z,58.20
2018-03-17T11:26:01.225Z,59.00
2018-03-17T11:28:29.625Z,58.90
2018-03-17T11:30:55.906Z,59.10
2018-03-17T11:33:23.061Z,59.10
2018-03-17T11:35:49.449Z,59.10
2018-03-17T11:38:15.818Z,59.50
2018-03-17T11:40:49.858Z,57.90
2018-03-17T11:43:16.259Z,59.10
2018-03-17T11:45:42.649Z,58.20
2018-03-17T11:48:09.493Z,58.50
2018-03-17T11:50:36.850Z,58.20
2018-03-17T11:53:03.199Z,58.10
2018-03-17T11:55:29.571Z,58.00
2018-03-17T11:57:57.426Z,58.50
2018-03-17T12:00:24.032Z,59.00
2018-03-17T12:02:50.462Z,59.00
2018-03-17T12:05:17.513Z,59.10
2018-03-17T12:07:44.596Z,57.90
2018-03-17T12:10:11.131Z,57.90
2018-03-17T12:12:38.305Z,58.30
2018-03-17T12:15:05.603Z,58.50
2018-03-17T12:17:32.019Z,58.40
2018-03-17T12:19:58.393Z,58.40
2018-03-17T12:22:30.290Z,59.50
2018-03-17T12:24:57.744Z,60.20
2018-03-17T12:27:24.091Z,60.20
2018-03-17T12:29:50.538Z,59.60
2018-03-17T12:32:16.894Z,60.30
2018-03-17T12:34:43.290Z,60.50
2018-03-17T12:37:10.648Z,60.00
2018-03-17T12:39:37.124Z,60.10
2018-03-17T12:42:03.515Z,59.80
2018-03-17T12:44:30.691Z,60.00
2018-03-17T12:46:58.569Z,60.10
2018-03-17T12:49:40.558Z,59.10
2018-03-17T12:52:07.572Z,59.00
2018-03-17T12:54:33.890Z,59.30
2018-03-17T12:57:00.263Z,59.70
2018-03-17T12:59:27.293Z,59.40
2018-03-17T13:01:54.458Z,58.90
2018-03-17T13:04:21.533Z,58.90
2018-03-17T13:06:47.967Z,58.90
2018-03-17T13:09:15.147Z,58.10
2018-03-17T13:11:41.562Z,58.10
2018-03-17T13:14:09.557Z,58.80
2018-03-17T13:16:35.918Z,59.60
2018-03-17T13:19:02.244Z,59.00
2018-03-17T13:21:29.349Z,59.10
2018-03-17T13:23:55.834Z,59.10
2018-03-17T13:26:22.216Z,58.50
2018-03-17T13:28:48.751Z,57.70
2018-03-17T13:31:15.198Z,57.20
2018-03-17T13:33:41.599Z,58.00
2018-03-17T13:36:22.544Z,58.60
2018-03-17T13:38:48.890Z,59.40
2018-03-17T13:41:15.294Z,59.80
2018-03-17T13:43:41.768Z,58.60
2018-03-17T13:46:16.758Z,59.80
2018-03-17T13:48:43.134Z,59.90
2018-03-17T13:51:09.781Z,59.70
2018-03-17T13:53:38.274Z,59.80
2018-03-17T13:56:06.014Z,59.00
2018-03-17T13:58:32.341Z,59.00
2018-03-17T14:00:58.707Z,59.30
2018-03-17T14:03:25.628Z,59.30
2018-03-17T14:05:54.007Z,59.30
2018-03-17T14:08:21.088Z,59.10
2018-03-17T14:13:33.450Z,58.60
2018-03-17T14:15:59.887Z,59.60
2018-03-17T14:18:26.219Z,60.20
2018-03-17T14:20:52.945Z,59.30
2018-03-17T14:23:20.184Z,59.60
2018-03-17T14:25:46.521Z,59.60
2018-03-17T14:28:12.918Z,59.40
2018-03-17T14:30:39.526Z,59.30
2018-03-17T14:33:05.872Z,59.30
2018-03-17T14:35:35.644Z,59.80
2018-03-17T14:38:02.211Z,59.50
2018-03-17T14:40:29.684Z,59.60
2018-03-17T14:42:56.022Z,59.60
2018-03-17T14:45:22.500Z,59.40
2018-03-17T14:47:48.865Z,60.00
2018-03-17T14:50:15.482Z,59.70
2018-03-17T14:52:43.631Z,60.30
2018-03-17T14:55:10.371Z,60.40
2018-03-17T14:57:36.870Z,59.60
2018-03-17T15:00:05.508Z,58.50
2018-03-17T15:02:41.080Z,59.20
2018-03-17T15:05:07.492Z,59.40
2018-03-17T15:07:33.954Z,60.50
2018-03-17T15:10:01.110Z,59.30
2018-03-17T15:12:28.265Z,59.90
2018-03-17T15:14:54.876Z,59.30
2018-03-17T15:17:22.316Z,59.00
2018-03-17T15:19:48.762Z,59.00
2018-03-17T15:22:15.295Z,59.40
2018-03-17T15:24:43.623Z,59.20
2018-03-17T15:27:11.360Z,58.70
2018-03-17T15:29:37.726Z,58.70
2018-03-17T15:32:04.096Z,58.10
2018-03-17T15:34:30.434Z,58.50
2018-03-17T15:36:56.866Z,58.40
2018-03-17T15:39:23.254Z,59.10
2018-03-17T15:41:49.627Z,58.70
2018-03-17T15:44:15.946Z,59.90
2018-03-17T15:46:42.495Z,59.20
2018-03-17T15:49:09.939Z,59.40
2018-03-17T15:51:37.114Z,58.80
2018-03-17T15:54:03.468Z,58.70
2018-03-17T15:56:38.732Z,59.40
2018-03-17T15:59:05.859Z,59.10
2018-03-17T16:01:40.862Z,59.10
2018-03-17T16:04:07.693Z,59.40
2018-03-17T16:06:34.223Z,59.70
2018-03-17T16:09:10.570Z,60.80
2018-03-17T16:11:37.025Z,61.60
2018-03-17T16:14:03.435Z,60.10
2018-03-17T16:16:30.610Z,58.80
2018-03-17T16:19:01.451Z,58.80
2018-03-17T16:21:28.785Z,59.10
2018-03-17T16:23:55.187Z,60.20
2018-03-17T16:26:21.558Z,59.80
2018-03-17T16:28:48.008Z,59.40
2018-03-17T16:31:18.630Z,59.70
2018-03-17T16:33:45.111Z,59.90
2018-03-17T16:36:11.617Z,59.10
2018-03-17T16:38:38.021Z,59.60
2018-03-17T16:41:05.156Z,59.30
2018-03-17T16:43:31.688Z,59.30
2018-03-17T16:45:58.394Z,59.40
2018-03-17T16:48:24.791Z,60.30
2018-03-17T16:50:51.906Z,59.70
2018-03-17T16:53:18.379Z,59.70
2018-03-17T16:55:45.065Z,59.20
2018-03-17T16:58:12.151Z,59.50
2018-03-17T17:00:39.551Z,59.40
2018-03-17T17:03:06.247Z,59.40
2018-03-17T17:05:32.583Z,59.80
2018-03-17T17:08:04.780Z,59.60
2018-03-17T17:10:32.727Z,59.80
2018-03-17T17:13:00.296Z,59.90
2018-03-17T17:15:26.901Z,59.80
2018-03-17T17:17:54.438Z,59.90
2018-03-17T17:20:22.715Z,58.90
2018-03-17T17:22:49.066Z,59.00
2018-03-17T17:25:15.521Z,59.50
2018-03-17T17:27:42.265Z,59.30
2018-03-17T17:30:10.022Z,59.00
2018-03-17T17:32:37.856Z,59.00
2018-03-17T17:35:05.003Z,59.40
2018-03-17T17:37:32.934Z,59.30
2018-03-17T17:39:59.670Z,59.30
2018-03-17T17:42:26.144Z,59.90
2018-03-17T17:44:52.488Z,59.80
2018-03-17T17:47:18.857Z,59.60
2018-03-17T17:49:45.602Z,59.70
2018-03-17T17:52:12.095Z,59.50
2018-03-17T17:54:38.522Z,59.30
2018-03-17T17:57:04.912Z,59.70
2018-03-17T17:59:31.280Z,60.00
2018-03-17T18:01:57.826Z,61.60
2018-03-17T18:04:24.385Z,59.90
2018-03-17T18:06:51.622Z,59.80
2018-03-17T18:09:18.084Z,59.10
2018-03-17T18:11:44.632Z,58.80
2018-03-17T18:14:11.628Z,60.00
2018-03-17T18:16:38.005Z,59.90
2018-03-17T18:19:04.402Z,60.20
2018-03-17T18:21:34.987Z,59.80
2018-03-17T18:24:01.493Z,60.50
2018-03-17T18:26:28.342Z,59.10
2018-03-17T18:28:54.691Z,59.30
2018-03-17T18:31:21.078Z,60.40
2018-03-17T18:33:47.431Z,59.90
2018-03-17T18:36:13.945Z,60.40
2018-03-17T18:38:40.718Z,60.70
2018-03-17T18:41:11.653Z,60.00
2018-03-17T18:43:38.798Z,58.50
2018-03-17T18:46:05.884Z,58.50
2018-03-17T18:48:33.489Z,58.40
2018-03-17T18:51:00.159Z,59.20
2018-03-17T18:53:26.483Z,59.70
2018-03-17T18:55:52.854Z,60.70
2018-03-17T18:58:19.244Z,60.30
2018-03-17T19:00:47.168Z,59.40
2018-03-17T19:03:13.463Z,59.30
2018-03-17T19:05:40.587Z,58.20
2018-03-17T19:08:07.003Z,58.30
2018-03-17T19:10:33.370Z,60.30
2018-03-17T19:13:00.541Z,59.40
2018-03-17T19:15:27.144Z,59.40
2018-03-17T19:17:56.838Z,59.10
2018-03-17T19:20:25.209Z,59.80
2018-03-17T19:23:08.940Z,59.80
2018-03-17T19:25:38.469Z,59.40
2018-03-17T19:28:05.123Z,60.20
2018-03-17T19:30:31.471Z,60.60
2018-03-17T19:32:58.089Z,59.70
2018-03-17T19:35:24.488Z,59.60
2018-03-17T19:37:50.874Z,59.60
2018-03-17T19:40:18.234Z,60.50
2018-03-17T19:42:44.604Z,59.70
2018-03-17T19:45:11.368Z,60.30
2018-03-17T19:47:50.753Z,59.90
2018-03-17T19:50:18.968Z,60.40
2018-03-17T19:52:46.153Z,60.30
2018-03-17T19:55:13.174Z,60.00
2018-03-17T19:57:39.756Z,60.00
2018-03-17T20:00:06.527Z,60.10
2018-03-17T20:02:32.961Z,60.70
2018-03-17T20:04:59.330Z,61.10
2018-03-17T20:07:25.699Z,60.70
2018-03-17T20:09:52.818Z,59.70
2018-03-17T20:12:20.041Z,59.70
2018-03-17T20:14:46.366Z,59.60
2018-03-17T20:17:14.130Z,60.70
2018-03-17T20:19:40.510Z,60.60
2018-03-17T20:22:06.879Z,60.30
2018-03-17T20:24:33.210Z,60.10
2018-03-17T20:27:01.909Z,61.30
2018-03-17T20:29:29.319Z,60.00
2018-03-17T20:31:55.711Z,60.90
2018-03-17T20:34:28.963Z,59.80
2018-03-17T20:36:55.324Z,59.90
2018-03-17T20:39:21.725Z,59.60
2018-03-17T20:41:48.058Z,59.90
2018-03-17T20:44:14.489Z,60.40
2018-03-17T20:46:40.805Z,61.20
2018-03-17T20:49:07.138Z,60.70
2018-03-17T20:51:34.607Z,60.50
2018-03-17T20:54:02.046Z,61.60
2018-03-17T20:56:39.612Z,61.30
2018-03-17T20:59:06.012Z,60.60
2018-03-17T21:01:32.366Z,60.20
2018-03-17T21:03:59.776Z,61.00
2018-03-17T21:06:26.229Z,60.70
2018-03-17T21:08:52.671Z,61.10
2018-03-17T21:11:20.082Z,61.60
2018-03-17T21:13:46.411Z,61.50
2018-03-17T21:16:12.801Z,61.10
2018-03-17T21:18:40.236Z,60.40
2018-03-17T21:21:06.635Z,60.20
2018-03-17T21:23:33.832Z,60.40
2018-03-17T21:26:00.980Z,60.40
2018-03-17T21:28:37.452Z,60.30
2018-03-17T21:31:04.670Z,61.50
2018-03-17T21:33:31.229Z,61.50
2018-03-17T21:35:58.486Z,61.30
2018-03-17T21:38:29.457Z,60.90
2018-03-17T21:40:56.770Z,61.80
2018-03-17T21:43:24.896Z,62.10
2018-03-17T21:45:51.280Z,61.90
2018-03-17T21:48:17.577Z,61.80
2018-03-17T21:50:44.045Z,61.70
2018-03-17T21:53:11.175Z,61.80
2018-03-17T21:55:39.235Z,61.40
2018-03-17T21:58:05.580Z,61.40
2018-03-17T22:00:31.948Z,60.80
2018-03-17T22:02:58.571Z,60.00
2018-03-17T22:05:24.910Z,60.10
2018-03-17T22:07:51.358Z,60.60
2018-03-17T22:10:18.413Z,60.50
2018-03-17T22:12:44.810Z,60.50
2018-03-17T22:15:11.935Z,61.60
2018-03-17T22:17:38.233Z,60.90
2018-03-17T22:20:25.022Z,62.80
2018-03-17T22:22:51.463Z,62.80
2018-03-17T22:25:17.771Z,62.00
2018-03-17T22:27:44.197Z,62.00
2018-03-17T22:30:13.436Z,61.50
2018-03-17T22:32:43.797Z,61.50
2018-03-17T22:35:12.498Z,61.20
2018-03-17T22:37:38.850Z,62.40
2018-03-17T22:40:05.227Z,60.90
2018-03-17T22:42:33.333Z,60.70
2018-03-17T22:44:59.621Z,60.70
2018-03-17T22:47:40.934Z,61.10
2018-03-17T22:50:07.944Z,61.50
2018-03-17T22:52:34.209Z,61.50
2018-03-17T22:55:00.465Z,61.20
2018-03-17T22:57:26.828Z,61.30
2018-03-17T22:59:53.876Z,61.30
2018-03-17T23:02:20.118Z,61.30
2018-03-17T23:04:47.122Z,60.50
2018-03-17T23:07:13.414Z,60.50
2018-03-17T23:09:39.747Z,61.00
2018-03-17T23:12:06.025Z,61.70
2018-03-17T23:14:46.019Z,60.90
2018-03-17T23:17:12.339Z,60.80
2018-03-17T23:19:38.615Z,61.20
2018-03-17T23:22:04.862Z,61.40
2018-03-17T23:24:31.120Z,60.50
2018-03-17T23:26:57.424Z,61.00
2018-03-17T23:29:23.724Z,61.40
2018-03-17T23:31:50.787Z,60.90
2018-03-17T23:34:17.029Z,60.40
2018-03-17T23:36:43.401Z,60.50
2018-03-17T23:39:16.930Z,60.10
2018-03-17T23:41:43.199Z,60.00
2018-03-17T23:44:09.539Z,60.20
2018-03-17T23:46:46.891Z,60.40
2018-03-17T23:49:13.247Z,61.20
2018-03-17T23:51:39.537Z,60.90
2018-03-17T23:54:05.862Z,61.00
2018-03-17T23:56:42.439Z,60.50
2018-03-17T23:59:08.735Z,59.80
